sensor_id;sensor_type;location;lat;lon;timestamp;pressure;altitude;pressure_sealevel;temperature;humidity
81909;BME280;71372;43.514;1.512;2024-02-23T00:00:07;99153.38;;;7.92;71.88
81909;BME280;71372;43.514;1.512;2024-02-23T00:02:33;99150.22;;;7.86;72.07
81909;BME280;71372;43.514;1.512;2024-02-23T00:04:59;99136.19;;;7.84;71.64
81909;BME280;71372;43.514;1.512;2024-02-23T00:07:25;99139.84;;;7.81;71.90
81909;BME280;71372;43.514;1.512;2024-02-23T00:09:51;99134.69;;;7.78;71.55
81909;BME280;71372;43.514;1.512;2024-02-23T00:12:17;99135.81;;;7.74;71.52
81909;BME280;71372;43.514;1.512;2024-02-23T00:14:43;99128.97;;;7.70;71.51
81909;BME280;71372;43.514;1.512;2024-02-23T00:17:08;99125.66;;;7.65;71.99
81909;BME280;71372;43.514;1.512;2024-02-23T00:19:34;99120.53;;;7.62;71.53
81909;BME280;71372;43.514;1.512;2024-02-23T00:22:00;99119.91;;;7.57;71.62
81909;BME280;71372;43.514;1.512;2024-02-23T00:24:26;99111.34;;;7.52;72.02
81909;BME280;71372;43.514;1.512;2024-02-23T00:26:52;99114.16;;;7.49;71.90
81909;BME280;71372;43.514;1.512;2024-02-23T00:29:18;99112.56;;;7.45;71.70
81909;BME280;71372;43.514;1.512;2024-02-23T00:31:44;99107.59;;;7.39;72.09
81909;BME280;71372;43.514;1.512;2024-02-23T00:34:13;99106.19;;;7.31;72.34
81909;BME280;71372;43.514;1.512;2024-02-23T00:36:40;99109.00;;;7.28;72.28
81909;BME280;71372;43.514;1.512;2024-02-23T00:39:07;99112.66;;;7.26;71.96
81909;BME280;71372;43.514;1.512;2024-02-23T00:41:34;99107.53;;;7.23;72.14
81909;BME280;71372;43.514;1.512;2024-02-23T00:44:01;99102.38;;;7.20;72.15
81909;BME280;71372;43.514;1.512;2024-02-23T00:46:27;99091.94;;;7.17;72.45
81909;BME280;71372;43.514;1.512;2024-02-23T00:48:53;99091.25;;;7.13;72.54
81909;BME280;71372;43.514;1.512;2024-02-23T00:51:20;99088.81;;;7.09;72.68
81909;BME280;71372;43.514;1.512;2024-02-23T00:53:46;99085.31;;;7.08;72.30
81909;BME280;71372;43.514;1.512;2024-02-23T00:56:12;99088.97;;;7.06;72.55
81909;BME280;71372;43.514;1.512;2024-02-23T00:58:39;99097.84;;;7.04;72.62
81909;BME280;71372;43.514;1.512;2024-02-23T01:01:05;99087.41;;;7.01;72.61
81909;BME280;71372;43.514;1.512;2024-02-23T01:03:31;99081.41;;;6.98;72.80
81909;BME280;71372;43.514;1.512;2024-02-23T01:05:57;99080.63;;;6.96;72.75
81909;BME280;71372;43.514;1.512;2024-02-23T01:08:23;99076.19;;;6.96;72.74
81909;BME280;71372;43.514;1.512;2024-02-23T01:10:49;99073.63;;;6.95;72.48
81909;BME280;71372;43.514;1.512;2024-02-23T01:13:15;99079.16;;;6.90;72.74
81909;BME280;71372;43.514;1.512;2024-02-23T01:15:42;99069.41;;;6.91;72.31
81909;BME280;71372;43.514;1.512;2024-02-23T01:18:08;99071.41;;;6.86;72.74
81909;BME280;71372;43.514;1.512;2024-02-23T01:20:34;99065.28;;;6.85;72.30
81909;BME280;71372;43.514;1.512;2024-02-23T01:23:00;99065.28;;;6.85;72.63
81909;BME280;71372;43.514;1.512;2024-02-23T01:25:28;99068.00;;;6.84;72.70
81909;BME280;71372;43.514;1.512;2024-02-23T01:27:57;99064.41;;;6.85;72.76
81909;BME280;71372;43.514;1.512;2024-02-23T01:30:23;99067.22;;;6.82;72.91
81909;BME280;71372;43.514;1.512;2024-02-23T01:32:49;99068.84;;;6.84;72.88
81909;BME280;71372;43.514;1.512;2024-02-23T01:35:16;99073.94;;;6.89;72.73
81909;BME280;71372;43.514;1.512;2024-02-23T01:37:42;99062.34;;;6.91;73.17
81909;BME280;71372;43.514;1.512;2024-02-23T01:40:08;99072.84;;;6.93;73.03
81909;BME280;71372;43.514;1.512;2024-02-23T01:42:34;99071.63;;;7.00;73.40
81909;BME280;71372;43.514;1.512;2024-02-23T01:45:00;99074.88;;;7.05;72.95
81909;BME280;71372;43.514;1.512;2024-02-23T01:47:28;99069.22;;;7.13;72.98
81909;BME280;71372;43.514;1.512;2024-02-23T01:49:59;99062.75;;;7.18;72.92
81909;BME280;71372;43.514;1.512;2024-02-23T01:52:25;99060.75;;;7.23;72.43
81909;BME280;71372;43.514;1.512;2024-02-23T01:54:52;99060.41;;;7.29;72.61
81909;BME280;71372;43.514;1.512;2024-02-23T01:57:20;99061.91;;;7.35;72.44
81909;BME280;71372;43.514;1.512;2024-02-23T01:59:48;99054.00;;;7.33;72.89
81909;BME280;71372;43.514;1.512;2024-02-23T02:02:14;99054.66;;;7.39;72.26
81909;BME280;71372;43.514;1.512;2024-02-23T02:04:40;99046.47;;;7.43;72.96
81909;BME280;71372;43.514;1.512;2024-02-23T02:07:06;99040.78;;;7.51;72.50
81909;BME280;71372;43.514;1.512;2024-02-23T02:09:32;99043.19;;;7.55;72.60
81909;BME280;71372;43.514;1.512;2024-02-23T02:11:58;99043.91;;;7.59;72.72
81909;BME280;71372;43.514;1.512;2024-02-23T02:14:24;99042.88;;;7.61;72.39
81909;BME280;71372;43.514;1.512;2024-02-23T02:16:50;99026.91;;;7.63;72.54
81909;BME280;71372;43.514;1.512;2024-02-23T02:19:15;99027.75;;;7.63;72.31
81909;BME280;71372;43.514;1.512;2024-02-23T02:21:41;99018.00;;;7.64;72.46
81909;BME280;71372;43.514;1.512;2024-02-23T02:24:07;99018.19;;;7.61;72.25
81909;BME280;71372;43.514;1.512;2024-02-23T02:26:35;99016.59;;;7.57;72.18
81909;BME280;71372;43.514;1.512;2024-02-23T02:29:01;99007.28;;;7.50;72.05
81909;BME280;71372;43.514;1.512;2024-02-23T02:31:27;99009.56;;;7.40;72.65
81909;BME280;71372;43.514;1.512;2024-02-23T02:33:52;99006.53;;;7.30;72.47
81909;BME280;71372;43.514;1.512;2024-02-23T02:36:18;99001.66;;;7.23;72.21
81909;BME280;71372;43.514;1.512;2024-02-23T02:38:44;99001.09;;;7.16;72.33
81909;BME280;71372;43.514;1.512;2024-02-23T02:41:10;98990.97;;;7.07;73.17
81909;BME280;71372;43.514;1.512;2024-02-23T02:43:36;98990.97;;;7.07;72.32
81909;BME280;71372;43.514;1.512;2024-02-23T02:46:02;98987.56;;;7.05;72.67
81909;BME280;71372;43.514;1.512;2024-02-23T02:48:28;98978.06;;;7.01;72.40
81909;BME280;71372;43.514;1.512;2024-02-23T02:50:54;98981.00;;;6.95;72.77
81909;BME280;71372;43.514;1.512;2024-02-23T02:53:21;98976.38;;;7.00;72.81
81909;BME280;71372;43.514;1.512;2024-02-23T02:55:46;98963.06;;;7.01;72.66
81909;BME280;71372;43.514;1.512;2024-02-23T02:58:13;98954.09;;;7.04;72.97
81909;BME280;71372;43.514;1.512;2024-02-23T03:00:39;98943.69;;;7.01;72.44
81909;BME280;71372;43.514;1.512;2024-02-23T03:03:06;98957.75;;;7.01;72.41
81909;BME280;71372;43.514;1.512;2024-02-23T03:05:31;98963.91;;;7.02;72.78
81909;BME280;71372;43.514;1.512;2024-02-23T03:07:57;98959.56;;;7.01;72.78
81909;BME280;71372;43.514;1.512;2024-02-23T03:10:23;98954.41;;;6.98;72.32
81909;BME280;71372;43.514;1.512;2024-02-23T03:12:49;98955.41;;;6.95;72.52
81909;BME280;71372;43.514;1.512;2024-02-23T03:15:15;98952.78;;;6.95;72.41
81909;BME280;71372;43.514;1.512;2024-02-23T03:17:42;98960.63;;;6.97;72.08
81909;BME280;71372;43.514;1.512;2024-02-23T03:20:08;98961.56;;;6.96;72.26
81909;BME280;71372;43.514;1.512;2024-02-23T03:22:35;98961.88;;;6.90;72.52
81909;BME280;71372;43.514;1.512;2024-02-23T03:25:02;98961.16;;;6.86;72.49
81909;BME280;71372;43.514;1.512;2024-02-23T03:34:18;98956.75;;;6.87;71.89
81909;BME280;71372;43.514;1.512;2024-02-23T03:36:43;98958.75;;;6.82;72.11
81909;BME280;71372;43.514;1.512;2024-02-23T03:39:09;98956.91;;;6.84;72.24
81909;BME280;71372;43.514;1.512;2024-02-23T03:41:36;98938.63;;;6.79;72.12
81909;BME280;71372;43.514;1.512;2024-02-23T03:44:02;98946.66;;;6.78;71.71
81909;BME280;71372;43.514;1.512;2024-02-23T03:46:27;98938.91;;;6.73;71.87
81909;BME280;71372;43.514;1.512;2024-02-23T03:48:53;98941.66;;;6.71;72.10
81909;BME280;71372;43.514;1.512;2024-02-23T03:51:19;98934.81;;;6.67;72.12
81909;BME280;71372;43.514;1.512;2024-02-23T03:53:45;98929.69;;;6.64;71.90
81909;BME280;71372;43.514;1.512;2024-02-23T03:56:11;98928.97;;;6.61;72.15
81909;BME280;71372;43.514;1.512;2024-02-23T03:58:37;98923.91;;;6.56;72.36
81909;BME280;71372;43.514;1.512;2024-02-23T04:01:03;98924.16;;;6.52;71.93
81909;BME280;71372;43.514;1.512;2024-02-23T04:03:29;98924.22;;;6.50;72.42
81909;BME280;71372;43.514;1.512;2024-02-23T04:05:55;98918.38;;;6.43;72.17
81909;BME280;71372;43.514;1.512;2024-02-23T04:08:21;98918.59;;;6.39;72.50
81909;BME280;71372;43.514;1.512;2024-02-23T04:10:47;98916.34;;;6.31;72.34
81909;BME280;71372;43.514;1.512;2024-02-23T04:13:13;98920.78;;;6.31;72.47
81909;BME280;71372;43.514;1.512;2024-02-23T04:15:40;98919.19;;;6.27;72.76
81909;BME280;71372;43.514;1.512;2024-02-23T04:18:06;98925.66;;;6.21;72.77
81909;BME280;71372;43.514;1.512;2024-02-23T04:20:32;98919.50;;;6.21;72.55
81909;BME280;71372;43.514;1.512;2024-02-23T04:22:58;98917.97;;;6.17;72.81
81909;BME280;71372;43.514;1.512;2024-02-23T04:25:24;98909.09;;;6.18;73.55
81909;BME280;71372;43.514;1.512;2024-02-23T04:27:50;98902.81;;;6.20;73.19
81909;BME280;71372;43.514;1.512;2024-02-23T04:30:16;98903.75;;;6.19;73.57
81909;BME280;71372;43.514;1.512;2024-02-23T04:32:42;98903.66;;;6.21;73.89
81909;BME280;71372;43.514;1.512;2024-02-23T04:35:10;98911.44;;;6.24;73.71
81909;BME280;71372;43.514;1.512;2024-02-23T04:37:36;98912.09;;;6.29;74.01
81909;BME280;71372;43.514;1.512;2024-02-23T04:40:02;98912.94;;;6.29;73.73
81909;BME280;71372;43.514;1.512;2024-02-23T04:42:29;98900.09;;;6.39;73.75
81909;BME280;71372;43.514;1.512;2024-02-23T04:44:55;98895.75;;;6.38;74.36
81909;BME280;71372;43.514;1.512;2024-02-23T04:47:21;98896.22;;;6.46;73.65
81909;BME280;71372;43.514;1.512;2024-02-23T04:49:47;98896.91;;;6.50;73.52
81909;BME280;71372;43.514;1.512;2024-02-23T04:52:13;98903.91;;;6.51;73.47
81909;BME280;71372;43.514;1.512;2024-02-23T04:54:39;98903.69;;;6.55;73.18
81909;BME280;71372;43.514;1.512;2024-02-23T04:57:05;98909.00;;;6.55;73.24
81909;BME280;71372;43.514;1.512;2024-02-23T04:59:31;98906.09;;;6.60;72.72
81909;BME280;71372;43.514;1.512;2024-02-23T05:01:58;98906.81;;;6.63;73.08
81909;BME280;71372;43.514;1.512;2024-02-23T05:04:24;98895.22;;;6.66;73.00
81909;BME280;71372;43.514;1.512;2024-02-23T05:06:52;98896.09;;;6.66;73.15
81909;BME280;71372;43.514;1.512;2024-02-23T05:09:18;98896.38;;;6.60;72.64
81909;BME280;71372;43.514;1.512;2024-02-23T05:11:44;98900.91;;;6.58;72.77
81909;BME280;71372;43.514;1.512;2024-02-23T05:14:11;98900.28;;;6.53;72.69
81909;BME280;71372;43.514;1.512;2024-02-23T05:16:37;98900.56;;;6.47;72.95
81909;BME280;71372;43.514;1.512;2024-02-23T05:19:03;98897.31;;;6.42;72.85
81909;BME280;71372;43.514;1.512;2024-02-23T05:21:29;98899.31;;;6.37;72.77
81909;BME280;71372;43.514;1.512;2024-02-23T05:23:55;98895.91;;;6.35;73.11
81909;BME280;71372;43.514;1.512;2024-02-23T05:26:21;98899.63;;;6.31;72.96
81909;BME280;71372;43.514;1.512;2024-02-23T05:28:47;98893.63;;;6.27;72.94
81909;BME280;71372;43.514;1.512;2024-02-23T05:31:12;98890.28;;;6.24;72.84
81909;BME280;71372;43.514;1.512;2024-02-23T05:33:39;98893.09;;;6.21;73.32
81909;BME280;71372;43.514;1.512;2024-02-23T05:36:05;98883.53;;;6.18;73.20
81909;BME280;71372;43.514;1.512;2024-02-23T05:38:31;98889.59;;;6.20;73.22
81909;BME280;71372;43.514;1.512;2024-02-23T05:40:57;98898.22;;;6.24;72.96
81909;BME280;71372;43.514;1.512;2024-02-23T05:43:23;98895.41;;;6.27;73.07
81909;BME280;71372;43.514;1.512;2024-02-23T05:45:49;98890.13;;;6.27;73.22
81909;BME280;71372;43.514;1.512;2024-02-23T05:48:15;98896.28;;;6.27;73.43
81909;BME280;71372;43.514;1.512;2024-02-23T05:50:41;98896.22;;;6.29;73.09
81909;BME280;71372;43.514;1.512;2024-02-23T05:53:07;98894.34;;;6.31;73.25
81909;BME280;71372;43.514;1.512;2024-02-23T05:55:33;98890.78;;;6.32;73.35
81909;BME280;71372;43.514;1.512;2024-02-23T05:57:59;98892.84;;;6.25;73.47
81909;BME280;71372;43.514;1.512;2024-02-23T06:00:25;98891.78;;;6.29;73.37
81909;BME280;71372;43.514;1.512;2024-02-23T06:02:51;98891.72;;;6.31;73.45
81909;BME280;71372;43.514;1.512;2024-02-23T06:05:17;98887.19;;;6.33;73.53
81909;BME280;71372;43.514;1.512;2024-02-23T06:07:43;98895.75;;;6.38;73.21
81909;BME280;71372;43.514;1.512;2024-02-23T06:10:09;98893.09;;;6.38;73.72
81909;BME280;71372;43.514;1.512;2024-02-23T06:12:35;98892.16;;;6.39;73.83
81909;BME280;71372;43.514;1.512;2024-02-23T06:15:01;98892.97;;;6.41;73.47
81909;BME280;71372;43.514;1.512;2024-02-23T06:17:27;98899.19;;;6.40;73.69
81909;BME280;71372;43.514;1.512;2024-02-23T06:19:53;98889.47;;;6.40;73.42
81909;BME280;71372;43.514;1.512;2024-02-23T06:22:19;98897.00;;;6.31;74.22
81909;BME280;71372;43.514;1.512;2024-02-23T06:24:47;98892.50;;;6.33;74.08
81909;BME280;71372;43.514;1.512;2024-02-23T06:27:13;98892.03;;;6.42;73.34
81909;BME280;71372;43.514;1.512;2024-02-23T06:29:39;98899.97;;;6.42;73.73
81909;BME280;71372;43.514;1.512;2024-02-23T06:32:05;98894.34;;;6.48;73.89
81909;BME280;71372;43.514;1.512;2024-02-23T06:34:31;98893.28;;;6.52;73.71
81909;BME280;71372;43.514;1.512;2024-02-23T06:36:57;98893.72;;;6.60;73.59
81909;BME280;71372;43.514;1.512;2024-02-23T06:39:23;98895.53;;;6.60;73.43
81909;BME280;71372;43.514;1.512;2024-02-23T06:41:49;98893.28;;;6.69;73.27
81909;BME280;71372;43.514;1.512;2024-02-23T06:44:15;98891.31;;;6.73;73.02
81909;BME280;71372;43.514;1.512;2024-02-23T06:46:41;98900.09;;;6.73;72.95
81909;BME280;71372;43.514;1.512;2024-02-23T06:49:07;98903.69;;;6.72;73.29
81909;BME280;71372;43.514;1.512;2024-02-23T06:51:33;98888.53;;;6.76;73.20
81909;BME280;71372;43.514;1.512;2024-02-23T06:53:59;98898.78;;;6.82;72.89
81909;BME280;71372;43.514;1.512;2024-02-23T06:56:25;98895.03;;;6.86;73.05
81909;BME280;71372;43.514;1.512;2024-02-23T06:58:51;98894.19;;;6.86;73.23
81909;BME280;71372;43.514;1.512;2024-02-23T07:01:20;98893.13;;;6.90;72.97
81909;BME280;71372;43.514;1.512;2024-02-23T07:03:46;98905.56;;;6.88;73.31
81909;BME280;71372;43.514;1.512;2024-02-23T07:06:12;98908.81;;;6.93;73.17
81909;BME280;71372;43.514;1.512;2024-02-23T07:08:38;98914.88;;;6.95;73.72
81909;BME280;71372;43.514;1.512;2024-02-23T07:11:04;98925.38;;;6.96;73.88
81909;BME280;71372;43.514;1.512;2024-02-23T07:13:29;98927.94;;;6.98;73.93
81909;BME280;71372;43.514;1.512;2024-02-23T07:15:55;98929.81;;;6.96;74.10
81909;BME280;71372;43.514;1.512;2024-02-23T07:18:22;98927.09;;;6.97;74.07
81909;BME280;71372;43.514;1.512;2024-02-23T07:20:48;98937.75;;;6.96;74.57
81909;BME280;71372;43.514;1.512;2024-02-23T07:23:14;98930.59;;;6.81;75.53
81909;BME280;71372;43.514;1.512;2024-02-23T07:25:42;98935.59;;;6.87;75.28
81909;BME280;71372;43.514;1.512;2024-02-23T07:28:08;98934.03;;;6.83;75.30
81909;BME280;71372;43.514;1.512;2024-02-23T07:30:33;98930.06;;;6.74;75.68
81909;BME280;71372;43.514;1.512;2024-02-23T07:33:02;98931.41;;;6.65;76.12
81909;BME280;71372;43.514;1.512;2024-02-23T07:35:28;98923.06;;;6.73;75.69
81909;BME280;71372;43.514;1.512;2024-02-23T07:37:55;98914.56;;;6.84;75.49
81909;BME280;71372;43.514;1.512;2024-02-23T07:40:21;98918.16;;;6.83;75.63
81909;BME280;71372;43.514;1.512;2024-02-23T07:42:47;98916.75;;;6.93;75.64
81909;BME280;71372;43.514;1.512;2024-02-23T07:45:13;98908.50;;;6.99;75.25
81909;BME280;71372;43.514;1.512;2024-02-23T07:47:39;98911.16;;;6.99;75.39
81909;BME280;71372;43.514;1.512;2024-02-23T07:50:05;98916.97;;;7.06;75.10
81909;BME280;71372;43.514;1.512;2024-02-23T07:52:31;98921.31;;;7.07;74.81
81909;BME280;71372;43.514;1.512;2024-02-23T07:54:57;98916.88;;;7.07;74.91
81909;BME280;71372;43.514;1.512;2024-02-23T07:57:23;98913.22;;;7.10;75.04
81909;BME280;71372;43.514;1.512;2024-02-23T07:59:49;98899.84;;;7.13;74.88
81909;BME280;71372;43.514;1.512;2024-02-23T08:02:15;98898.06;;;7.13;74.98
81909;BME280;71372;43.514;1.512;2024-02-23T08:04:41;98894.38;;;7.16;74.49
81909;BME280;71372;43.514;1.512;2024-02-23T08:07:08;98884.06;;;7.11;75.16
81909;BME280;71372;43.514;1.512;2024-02-23T08:09:34;98881.72;;;7.05;75.13
81909;BME280;71372;43.514;1.512;2024-02-23T08:12:00;98884.53;;;7.02;75.18
81909;BME280;71372;43.514;1.512;2024-02-23T08:14:26;98884.25;;;6.91;75.38
81909;BME280;71372;43.514;1.512;2024-02-23T08:16:52;98897.94;;;6.99;75.66
81909;BME280;71372;43.514;1.512;2024-02-23T08:19:17;98904.00;;;7.01;75.81
81909;BME280;71372;43.514;1.512;2024-02-23T08:21:43;98904.13;;;7.15;75.14
81909;BME280;71372;43.514;1.512;2024-02-23T08:24:09;98899.63;;;7.33;75.26
81909;BME280;71372;43.514;1.512;2024-02-23T08:26:35;98891.72;;;7.49;74.75
81909;BME280;71372;43.514;1.512;2024-02-23T08:29:04;98900.53;;;7.65;74.16
81909;BME280;71372;43.514;1.512;2024-02-23T08:31:30;98902.19;;;7.83;74.19
81909;BME280;71372;43.514;1.512;2024-02-23T08:33:56;98898.50;;;7.86;73.29
81909;BME280;71372;43.514;1.512;2024-02-23T08:36:22;98912.75;;;7.99;73.55
81909;BME280;71372;43.514;1.512;2024-02-23T08:38:48;98914.66;;;7.97;73.22
81909;BME280;71372;43.514;1.512;2024-02-23T08:41:14;98920.03;;;8.11;73.03
81909;BME280;71372;43.514;1.512;2024-02-23T08:43:40;98917.00;;;8.33;73.17
81909;BME280;71372;43.514;1.512;2024-02-23T08:46:06;98921.88;;;8.57;72.31
81909;BME280;71372;43.514;1.512;2024-02-23T08:48:32;98920.41;;;8.67;72.52
81909;BME280;71372;43.514;1.512;2024-02-23T08:50:58;98929.06;;;8.55;72.12
81909;BME280;71372;43.514;1.512;2024-02-23T08:53:24;98918.09;;;8.61;71.92
81909;BME280;71372;43.514;1.512;2024-02-23T08:55:50;98924.00;;;8.66;71.58
81909;BME280;71372;43.514;1.512;2024-02-23T08:58:16;98930.44;;;8.76;71.19
81909;BME280;71372;43.514;1.512;2024-02-23T09:00:41;98929.97;;;8.69;70.84
81909;BME280;71372;43.514;1.512;2024-02-23T09:03:07;98930.16;;;8.66;71.36
81909;BME280;71372;43.514;1.512;2024-02-23T09:05:33;98935.72;;;8.62;70.45
81909;BME280;71372;43.514;1.512;2024-02-23T09:07:59;98930.09;;;8.52;70.22
81909;BME280;71372;43.514;1.512;2024-02-23T09:10:25;98932.50;;;8.57;70.82
81909;BME280;71372;43.514;1.512;2024-02-23T09:12:51;98928.84;;;8.43;69.89
81909;BME280;71372;43.514;1.512;2024-02-23T09:15:17;98927.31;;;8.69;69.87
81909;BME280;71372;43.514;1.512;2024-02-23T09:17:43;98924.38;;;8.74;69.10
81909;BME280;71372;43.514;1.512;2024-02-23T09:20:09;98925.13;;;8.76;68.66
81909;BME280;71372;43.514;1.512;2024-02-23T09:22:35;98928.81;;;8.89;68.91
81909;BME280;71372;43.514;1.512;2024-02-23T09:25:02;98928.59;;;8.78;68.91
81909;BME280;71372;43.514;1.512;2024-02-23T09:27:31;98935.22;;;8.85;68.79
81909;BME280;71372;43.514;1.512;2024-02-23T09:29:56;98936.16;;;8.84;68.75
81909;BME280;71372;43.514;1.512;2024-02-23T09:32:24;98928.63;;;9.06;68.69
81909;BME280;71372;43.514;1.512;2024-02-23T09:34:50;98927.53;;;9.25;68.20
81909;BME280;71372;43.514;1.512;2024-02-23T09:37:16;98924.88;;;9.39;68.26
81909;BME280;71372;43.514;1.512;2024-02-23T09:39:41;98926.19;;;9.75;67.92
81909;BME280;71372;43.514;1.512;2024-02-23T09:42:09;98925.81;;;9.81;66.97
81909;BME280;71372;43.514;1.512;2024-02-23T09:44:36;98923.69;;;10.00;66.08
81909;BME280;71372;43.514;1.512;2024-02-23T09:47:03;98935.44;;;10.10;64.74
81909;BME280;71372;43.514;1.512;2024-02-23T09:49:38;98925.19;;;10.04;64.66
81909;BME280;71372;43.514;1.512;2024-02-23T09:52:09;98924.69;;;10.26;64.99
81909;BME280;71372;43.514;1.512;2024-02-23T09:54:37;98934.69;;;9.94;63.81
81909;BME280;71372;43.514;1.512;2024-02-23T09:57:07;98932.03;;;9.94;64.12
81909;BME280;71372;43.514;1.512;2024-02-23T09:59:35;98926.50;;;10.11;64.22
81909;BME280;71372;43.514;1.512;2024-02-23T10:02:06;98922.53;;;10.04;63.32
81909;BME280;71372;43.514;1.512;2024-02-23T10:04:34;98925.84;;;10.22;63.18
81909;BME280;71372;43.514;1.512;2024-02-23T10:07:00;98924.56;;;10.42;63.42
81909;BME280;71372;43.514;1.512;2024-02-23T10:09:26;98928.56;;;10.62;62.98
81909;BME280;71372;43.514;1.512;2024-02-23T10:11:52;98938.47;;;10.72;63.41
81909;BME280;71372;43.514;1.512;2024-02-23T10:14:19;98941.44;;;10.55;63.41
81909;BME280;71372;43.514;1.512;2024-02-23T10:16:45;98941.72;;;10.09;63.65
81909;BME280;71372;43.514;1.512;2024-02-23T10:19:10;98958.38;;;9.84;64.79
81909;BME280;71372;43.514;1.512;2024-02-23T10:21:36;98966.72;;;9.64;65.41
81909;BME280;71372;43.514;1.512;2024-02-23T10:24:02;98966.44;;;9.54;66.23
81909;BME280;71372;43.514;1.512;2024-02-23T10:26:28;98956.81;;;9.23;67.40
81909;BME280;71372;43.514;1.512;2024-02-23T10:28:55;98953.16;;;9.40;68.10
81909;BME280;71372;43.514;1.512;2024-02-23T10:31:23;98961.31;;;9.37;67.70
81909;BME280;71372;43.514;1.512;2024-02-23T10:33:50;98964.94;;;9.50;66.48
81909;BME280;71372;43.514;1.512;2024-02-23T10:36:18;98958.47;;;9.40;66.19
81909;BME280;71372;43.514;1.512;2024-02-23T10:38:45;98963.16;;;9.21;66.20
81909;BME280;71372;43.514;1.512;2024-02-23T10:41:17;98970.41;;;9.33;66.52
81909;BME280;71372;43.514;1.512;2024-02-23T10:43:48;98961.84;;;9.14;66.86
81909;BME280;71372;43.514;1.512;2024-02-23T10:46:18;98964.53;;;9.28;66.83
81909;BME280;71372;43.514;1.512;2024-02-23T10:48:45;98968.28;;;9.09;67.66
81909;BME280;71372;43.514;1.512;2024-02-23T10:51:13;98964.53;;;9.28;67.06
81909;BME280;71372;43.514;1.512;2024-02-23T10:53:40;98964.94;;;9.50;67.37
81909;BME280;71372;43.514;1.512;2024-02-23T10:56:07;98964.44;;;9.44;67.23
81909;BME280;71372;43.514;1.512;2024-02-23T10:58:33;98963.69;;;9.56;66.37
81909;BME280;71372;43.514;1.512;2024-02-23T11:01:01;98967.78;;;9.61;66.52
81909;BME280;71372;43.514;1.512;2024-02-23T11:03:32;98962.66;;;9.73;66.61
81909;BME280;71372;43.514;1.512;2024-02-23T11:06:02;98964.16;;;9.77;66.20
81909;BME280;71372;43.514;1.512;2024-02-23T11:08:29;98962.25;;;9.93;66.32
81909;BME280;71372;43.514;1.512;2024-02-23T11:10:55;98970.44;;;9.76;65.95
81909;BME280;71372;43.514;1.512;2024-02-23T11:13:31;98964.72;;;9.67;65.99
81909;BME280;71372;43.514;1.512;2024-02-23T11:16:07;98976.31;;;9.81;65.73
81909;BME280;71372;43.514;1.512;2024-02-23T11:18:35;98985.53;;;9.75;66.56
81909;BME280;71372;43.514;1.512;2024-02-23T11:21:03;98976.59;;;9.76;66.33
81909;BME280;71372;43.514;1.512;2024-02-23T11:23:44;98992.00;;;9.71;66.97
81909;BME280;71372;43.514;1.512;2024-02-23T11:26:12;98990.16;;;9.43;68.21
81909;BME280;71372;43.514;1.512;2024-02-23T11:28:51;98985.03;;;9.54;67.38
81909;BME280;71372;43.514;1.512;2024-02-23T11:31:23;98976.75;;;9.45;67.01
81909;BME280;71372;43.514;1.512;2024-02-23T11:33:51;98972.91;;;9.64;67.46
81909;BME280;71372;43.514;1.512;2024-02-23T11:36:32;98968.25;;;9.96;67.23
81909;BME280;71372;43.514;1.512;2024-02-23T11:38:59;98963.16;;;10.06;66.53
81909;BME280;71372;43.514;1.512;2024-02-23T11:41:27;98970.97;;;10.23;66.88
81909;BME280;71372;43.514;1.512;2024-02-23T11:43:55;98960.69;;;10.32;66.20
81909;BME280;71372;43.514;1.512;2024-02-23T11:46:22;98965.00;;;10.47;65.83
81909;BME280;71372;43.514;1.512;2024-02-23T11:48:48;98968.41;;;10.49;66.19
81909;BME280;71372;43.514;1.512;2024-02-23T11:51:20;98968.47;;;10.35;66.06
81909;BME280;71372;43.514;1.512;2024-02-23T11:53:47;98964.22;;;10.32;66.26
81909;BME280;71372;43.514;1.512;2024-02-23T11:56:14;98960.59;;;10.05;66.36
81909;BME280;71372;43.514;1.512;2024-02-23T11:58:40;98958.38;;;9.84;67.23
81909;BME280;71372;43.514;1.512;2024-02-23T12:01:06;98959.59;;;9.79;67.57
81909;BME280;71372;43.514;1.512;2024-02-23T12:03:33;98953.25;;;9.67;67.39
81909;BME280;71372;43.514;1.512;2024-02-23T12:06:02;98954.09;;;9.67;67.48
81909;BME280;71372;43.514;1.512;2024-02-23T12:08:30;98960.56;;;9.63;67.37
81909;BME280;71372;43.514;1.512;2024-02-23T12:11:04;98955.06;;;9.52;67.93
81909;BME280;71372;43.514;1.512;2024-02-23T12:13:30;98949.91;;;9.21;67.24
81909;BME280;71372;43.514;1.512;2024-02-23T12:15:57;98945.19;;;9.26;67.91
81909;BME280;71372;43.514;1.512;2024-02-23T12:18:23;98937.31;;;9.53;67.02
81909;BME280;71372;43.514;1.512;2024-02-23T12:20:52;98945.28;;;9.67;66.93
81909;BME280;71372;43.514;1.512;2024-02-23T12:23:18;98937.13;;;9.56;65.92
81909;BME280;71372;43.514;1.512;2024-02-23T12:25:56;98926.94;;;9.77;66.13
81909;BME280;71372;43.514;1.512;2024-02-23T12:28:23;98926.94;;;9.91;66.26
81909;BME280;71372;43.514;1.512;2024-02-23T12:31:02;98913.00;;;10.14;65.55
81909;BME280;71372;43.514;1.512;2024-02-23T12:33:29;98923.84;;;10.25;65.50
81909;BME280;71372;43.514;1.512;2024-02-23T12:35:58;98925.34;;;10.30;64.73
81909;BME280;71372;43.514;1.512;2024-02-23T12:38:25;98912.03;;;10.30;64.57
81909;BME280;71372;43.514;1.512;2024-02-23T12:40:51;98906.16;;;10.51;63.86
81909;BME280;71372;43.514;1.512;2024-02-23T12:43:18;98901.97;;;10.35;63.26
81909;BME280;71372;43.514;1.512;2024-02-23T12:45:44;98913.66;;;10.59;63.20
81909;BME280;71372;43.514;1.512;2024-02-23T12:48:11;98902.50;;;10.40;62.00
81909;BME280;71372;43.514;1.512;2024-02-23T12:50:37;98909.56;;;10.53;61.84
81909;BME280;71372;43.514;1.512;2024-02-23T12:53:03;98887.78;;;10.61;61.96
81909;BME280;71372;43.514;1.512;2024-02-23T12:55:29;98894.50;;;10.67;61.16
81909;BME280;71372;43.514;1.512;2024-02-23T12:57:55;98900.81;;;10.78;61.09
81909;BME280;71372;43.514;1.512;2024-02-23T13:00:21;98897.84;;;10.43;60.11
81909;BME280;71372;43.514;1.512;2024-02-23T13:02:47;98882.44;;;10.21;60.57
81909;BME280;71372;43.514;1.512;2024-02-23T13:05:13;98876.53;;;10.31;60.79
81909;BME280;71372;43.514;1.512;2024-02-23T13:07:39;98879.34;;;10.42;61.29
81909;BME280;71372;43.514;1.512;2024-02-23T13:10:06;98877.22;;;10.47;60.47
81909;BME280;71372;43.514;1.512;2024-02-23T13:12:32;98866.69;;;10.58;59.89